sensor_id;sensor_type;location;lat;lon;timestamp;pressure;altitude;pressure_sealevel;temperature;humidity
40994;BME280;26722;43.212;27.932;2023-01-28T00:01:36;55329.34;;;-146.72;76.26
40994;BME280;26722;43.212;27.932;2023-01-28T00:04:01;55352.56;;;-146.72;76.40
40994;BME280;26722;43.212;27.932;2023-01-28T00:06:27;55331.44;;;-146.72;76.57
40994;BME280;26722;43.212;27.932;2023-01-28T00:08:52;55314.56;;;-146.72;76.60
40994;BME280;26722;43.212;27.932;2023-01-28T00:11:20;55352.56;;;-146.72;76.71
40994;BME280;26722;43.212;27.932;2023-01-28T00:13:52;55348.34;;;-146.72;76.72
40994;BME280;26722;43.212;27.932;2023-01-28T00:16:19;55350.44;;;-146.72;76.73
40994;BME280;26722;43.212;27.932;2023-01-28T00:18:44;55327.22;;;-146.72;76.95
40994;BME280;26722;43.212;27.932;2023-01-28T00:21:12;55348.34;;;-146.72;77.25
40994;BME280;26722;43.212;27.932;2023-01-28T00:23:39;55365.22;;;-146.72;77.10
40994;BME280;26722;43.212;27.932;2023-01-28T00:26:09;55339.91;;;-146.72;77.29
40994;BME280;26722;43.212;27.932;2023-01-28T00:28:35;55344.13;;;-146.72;77.21
40994;BME280;26722;43.212;27.932;2023-01-28T00:31:21;55327.22;;;-146.72;77.19
40994;BME280;26722;43.212;27.932;2023-01-28T00:33:49;55344.13;;;-146.72;77.16
40994;BME280;26722;43.212;27.932;2023-01-28T00:36:15;55339.91;;;-146.72;77.21
40994;BME280;26722;43.212;27.932;2023-01-28T00:38:41;55352.56;;;-146.72;77.46
40994;BME280;26722;43.212;27.932;2023-01-28T00:43:32;55329.34;;;-146.72;77.50
40994;BME280;26722;43.212;27.932;2023-01-28T00:45:58;55363.13;;;-146.72;77.46
40994;BME280;26722;43.212;27.932;2023-01-28T00:48:23;55301.88;;;-146.72;77.71
40994;BME280;26722;43.212;27.932;2023-01-28T00:50:48;55335.66;;;-146.72;77.53
40994;BME280;26722;43.212;27.932;2023-01-28T00:53:14;55337.78;;;-146.72;77.84
40994;BME280;26722;43.212;27.932;2023-01-28T00:55:39;55337.78;;;-146.72;78.03
40994;BME280;26722;43.212;27.932;2023-01-28T00:58:05;55356.78;;;-146.72;78.04
40994;BME280;26722;43.212;27.932;2023-01-28T01:00:30;55335.66;;;-146.72;78.18
40994;BME280;26722;43.212;27.932;2023-01-28T01:02:55;55318.78;;;-146.72;78.21
40994;BME280;26722;43.212;27.932;2023-01-28T01:05:21;55329.34;;;-146.72;78.41
40994;BME280;26722;43.212;27.932;2023-01-28T01:07:46;55352.56;;;-146.72;78.47
40994;BME280;26722;43.212;27.932;2023-01-28T01:10:17;55365.22;;;-146.72;78.26
40994;BME280;26722;43.212;27.932;2023-01-28T01:12:45;55339.91;;;-146.72;78.36
40994;BME280;26722;43.212;27.932;2023-01-28T01:15:11;55331.44;;;-146.72;78.53
40994;BME280;26722;43.212;27.932;2023-01-28T01:17:38;55335.66;;;-146.72;78.47
40994;BME280;26722;43.212;27.932;2023-01-28T01:20:06;55339.91;;;-146.72;78.57
40994;BME280;26722;43.212;27.932;2023-01-28T01:22:33;55333.56;;;-146.72;78.64
40994;BME280;26722;43.212;27.932;2023-01-28T01:24:59;55346.22;;;-146.72;78.46
40994;BME280;26722;43.212;27.932;2023-01-28T01:27:25;55342.00;;;-146.72;78.34
40994;BME280;26722;43.212;27.932;2023-01-28T01:29:50;55358.91;;;-146.72;78.20
40994;BME280;26722;43.212;27.932;2023-01-28T01:32:16;55335.66;;;-146.72;77.96
40994;BME280;26722;43.212;27.932;2023-01-28T01:34:42;55329.34;;;-146.72;77.91
40994;BME280;26722;43.212;27.932;2023-01-28T01:37:08;55335.66;;;-146.72;77.83
40994;BME280;26722;43.212;27.932;2023-01-28T01:39:35;55344.13;;;-146.72;77.71
40994;BME280;26722;43.212;27.932;2023-01-28T01:42:01;55344.13;;;-146.72;77.56
40994;BME280;26722;43.212;27.932;2023-01-28T01:44:56;55329.34;;;-146.72;77.66
40994;BME280;26722;43.212;27.932;2023-01-28T01:47:56;55350.44;;;-146.72;77.42
40994;BME280;26722;43.212;27.932;2023-01-28T01:50:34;55337.78;;;-146.72;77.24
40994;BME280;26722;43.212;27.932;2023-01-28T01:53:13;55342.00;;;-146.72;77.29
40994;BME280;26722;43.212;27.932;2023-01-28T01:55:44;55344.13;;;-146.72;77.28
40994;BME280;26722;43.212;27.932;2023-01-28T01:58:14;55352.56;;;-146.72;77.05
40994;BME280;26722;43.212;27.932;2023-01-28T02:00:40;55363.13;;;-146.72;77.07
40994;BME280;26722;43.212;27.932;2023-01-28T02:03:07;55363.13;;;-146.72;76.92
40994;BME280;26722;43.212;27.932;2023-01-28T02:05:33;55344.13;;;-146.72;76.51
40994;BME280;26722;43.212;27.932;2023-01-28T02:07:59;55356.78;;;-146.72;76.84
40994;BME280;26722;43.212;27.932;2023-01-28T02:10:46;55354.66;;;-146.72;76.54
40994;BME280;26722;43.212;27.932;2023-01-28T02:13:14;55333.56;;;-146.72;76.21
40994;BME280;26722;43.212;27.932;2023-01-28T02:15:41;55354.66;;;-146.72;76.01
40994;BME280;26722;43.212;27.932;2023-01-28T02:18:06;55348.34;;;-146.72;76.53
40994;BME280;26722;43.212;27.932;2023-01-28T02:20:55;55352.56;;;-146.72;76.34
40994;BME280;26722;43.212;27.932;2023-01-28T02:31:41;55354.66;;;-146.72;76.09
40994;BME280;26722;43.212;27.932;2023-01-28T02:37:01;55382.13;;;-146.72;75.68
40994;BME280;26722;43.212;27.932;2023-01-28T02:39:32;55348.34;;;-146.72;75.83
40994;BME280;26722;43.212;27.932;2023-01-28T02:42:10;55371.56;;;-146.72;75.72
40994;BME280;26722;43.212;27.932;2023-01-28T02:44:37;55365.22;;;-146.72;75.75
40994;BME280;26722;43.212;27.932;2023-01-28T02:47:09;55399.00;;;-146.72;75.79
40994;BME280;26722;43.212;27.932;2023-01-28T02:49:54;55371.56;;;-146.72;75.87
40994;BME280;26722;43.212;27.932;2023-01-28T02:52:25;55377.91;;;-146.72;75.71
40994;BME280;26722;43.212;27.932;2023-01-28T02:55:52;55373.69;;;-146.72;75.94
40994;BME280;26722;43.212;27.932;2023-01-28T03:06:20;55348.34;;;-146.72;75.58
40994;BME280;26722;43.212;27.932;2023-01-28T03:11:51;55386.34;;;-146.72;75.63
40994;BME280;26722;43.212;27.932;2023-01-28T03:14:38;55394.78;;;-146.72;75.50
40994;BME280;26722;43.212;27.932;2023-01-28T03:17:45;55382.13;;;-146.72;75.53
40994;BME280;26722;43.212;27.932;2023-01-28T03:20:38;55382.13;;;-146.72;75.45
40994;BME280;26722;43.212;27.932;2023-01-28T03:23:29;55380.00;;;-146.72;75.37
40994;BME280;26722;43.212;27.932;2023-01-28T03:26:18;55380.00;;;-146.72;75.27
40994;BME280;26722;43.212;27.932;2023-01-28T03:29:07;55386.34;;;-146.72;75.04
40994;BME280;26722;43.212;27.932;2023-01-28T03:31:54;55394.78;;;-146.72;75.02
40994;BME280;26722;43.212;27.932;2023-01-28T03:34:39;55386.34;;;-146.72;75.13
40994;BME280;26722;43.212;27.932;2023-01-28T03:37:23;55403.25;;;-146.72;75.06
40994;BME280;26722;43.212;27.932;2023-01-28T03:39:50;55382.13;;;-146.72;75.01
40994;BME280;26722;43.212;27.932;2023-01-28T03:42:16;55373.69;;;-146.72;74.71
40994;BME280;26722;43.212;27.932;2023-01-28T03:44:43;55405.34;;;-146.72;74.63
40994;BME280;26722;43.212;27.932;2023-01-28T03:47:19;55386.34;;;-146.72;74.26
40994;BME280;26722;43.212;27.932;2023-01-28T03:49:47;55369.44;;;-146.72;74.70
40994;BME280;26722;43.212;27.932;2023-01-28T03:52:17;55386.34;;;-146.72;74.57
40994;BME280;26722;43.212;27.932;2023-01-28T03:54:44;55390.56;;;-146.72;74.32
40994;BME280;26722;43.212;27.932;2023-01-28T03:57:15;55399.00;;;-146.72;74.42
40994;BME280;26722;43.212;27.932;2023-01-28T03:59:41;55407.47;;;-146.72;74.48
40994;BME280;26722;43.212;27.932;2023-01-28T04:02:07;55386.34;;;-146.72;74.19
40994;BME280;26722;43.212;27.932;2023-01-28T04:04:36;55434.91;;;-146.72;73.94
40994;BME280;26722;43.212;27.932;2023-01-28T04:07:02;55422.25;;;-146.72;74.03
40994;BME280;26722;43.212;27.932;2023-01-28T04:09:27;55388.47;;;-146.72;73.72
40994;BME280;26722;43.212;27.932;2023-01-28T04:11:53;55386.34;;;-146.72;73.79
40994;BME280;26722;43.212;27.932;2023-01-28T04:14:18;55405.34;;;-146.72;73.73
40994;BME280;26722;43.212;27.932;2023-01-28T04:16:44;55388.47;;;-146.72;73.93
40994;BME280;26722;43.212;27.932;2023-01-28T04:19:10;55382.13;;;-146.72;73.83
40994;BME280;26722;43.212;27.932;2023-01-28T04:21:40;55380.00;;;-146.72;73.74
40994;BME280;26722;43.212;27.932;2023-01-28T04:24:06;55420.13;;;-146.72;73.89
40994;BME280;26722;43.212;27.932;2023-01-28T04:26:32;55394.78;;;-146.72;73.81
40994;BME280;26722;43.212;27.932;2023-01-28T04:28:57;55392.69;;;-146.72;73.64
40994;BME280;26722;43.212;27.932;2023-01-28T04:31:23;55388.47;;;-146.72;73.45
40994;BME280;26722;43.212;27.932;2023-01-28T04:33:49;55399.00;;;-146.72;73.33
40994;BME280;26722;43.212;27.932;2023-01-28T04:36:15;55388.47;;;-146.72;73.62
40994;BME280;26722;43.212;27.932;2023-01-28T04:38:41;55386.34;;;-146.72;73.06
40994;BME280;26722;43.212;27.932;2023-01-28T04:41:06;55394.78;;;-146.72;73.27
40994;BME280;26722;43.212;27.932;2023-01-28T04:43:32;55382.13;;;-146.72;72.93
40994;BME280;26722;43.212;27.932;2023-01-28T04:45:57;55369.44;;;-146.72;72.49
40994;BME280;26722;43.212;27.932;2023-01-28T04:48:23;55380.00;;;-146.72;72.72
40994;BME280;26722;43.212;27.932;2023-01-28T04:50:48;55388.47;;;-146.72;72.24
40994;BME280;26722;43.212;27.932;2023-01-28T04:53:14;55394.78;;;-146.72;72.50
40994;BME280;26722;43.212;27.932;2023-01-28T04:55:39;55418.00;;;-146.72;72.83
40994;BME280;26722;43.212;27.932;2023-01-28T04:58:04;55399.00;;;-146.72;72.64
40994;BME280;26722;43.212;27.932;2023-01-28T05:00:30;55407.47;;;-146.72;72.36
40994;BME280;26722;43.212;27.932;2023-01-28T05:02:55;55413.78;;;-146.72;72.65
40994;BME280;26722;43.212;27.932;2023-01-28T05:05:21;55390.56;;;-146.72;72.70
40994;BME280;26722;43.212;27.932;2023-01-28T05:07:51;55428.56;;;-146.72;72.93
40994;BME280;26722;43.212;27.932;2023-01-28T05:10:16;55407.47;;;-146.72;73.05
40994;BME280;26722;43.212;27.932;2023-01-28T05:12:44;55407.47;;;-146.72;72.92
40994;BME280;26722;43.212;27.932;2023-01-28T05:15:09;55399.00;;;-146.72;73.01
40994;BME280;26722;43.212;27.932;2023-01-28T05:17:35;55392.69;;;-146.72;72.80
40994;BME280;26722;43.212;27.932;2023-01-28T05:20:00;55441.25;;;-146.72;72.72
40994;BME280;26722;43.212;27.932;2023-01-28T05:22:26;55415.91;;;-146.72;73.34
40994;BME280;26722;43.212;27.932;2023-01-28T05:24:51;55411.69;;;-146.72;73.14
40994;BME280;26722;43.212;27.932;2023-01-28T05:27:17;55377.91;;;-146.72;73.03
40994;BME280;26722;43.212;27.932;2023-01-28T05:29:42;55424.34;;;-146.72;72.59
40994;BME280;26722;43.212;27.932;2023-01-28T05:32:08;55430.69;;;-146.72;72.37
40994;BME280;26722;43.212;27.932;2023-01-28T05:34:33;55386.34;;;-146.72;72.70
40994;BME280;26722;43.212;27.932;2023-01-28T05:36:59;55407.47;;;-146.72;72.46
40994;BME280;26722;43.212;27.932;2023-01-28T05:39:24;55394.78;;;-146.72;72.51
40994;BME280;26722;43.212;27.932;2023-01-28T05:41:49;55409.56;;;-146.72;72.32
40994;BME280;26722;43.212;27.932;2023-01-28T05:44:15;55386.34;;;-146.72;72.32
40994;BME280;26722;43.212;27.932;2023-01-28T05:46:40;55405.34;;;-146.72;72.17
40994;BME280;26722;43.212;27.932;2023-01-28T05:49:10;55380.00;;;-146.72;72.14
40994;BME280;26722;43.212;27.932;2023-01-28T05:51:40;55388.47;;;-146.72;72.43
40994;BME280;26722;43.212;27.932;2023-01-28T05:54:06;55411.69;;;-146.72;72.51
40994;BME280;26722;43.212;27.932;2023-01-28T05:56:32;55407.47;;;-146.72;72.22
40994;BME280;26722;43.212;27.932;2023-01-28T05:58:59;55443.34;;;-146.72;72.51
40994;BME280;26722;43.212;27.932;2023-01-28T06:01:24;55375.78;;;-146.72;72.36
40994;BME280;26722;43.212;27.932;2023-01-28T06:03:50;55382.13;;;-146.72;72.38
40994;BME280;26722;43.212;27.932;2023-01-28T06:06:15;55411.69;;;-146.72;72.58
40994;BME280;26722;43.212;27.932;2023-01-28T06:08:41;55392.69;;;-146.72;72.59
40994;BME280;26722;43.212;27.932;2023-01-28T06:11:06;55407.47;;;-146.72;72.17
40994;BME280;26722;43.212;27.932;2023-01-28T06:13:32;55380.00;;;-146.72;71.95
40994;BME280;26722;43.212;27.932;2023-01-28T06:15:57;55403.25;;;-146.72;71.45
40994;BME280;26722;43.212;27.932;2023-01-28T06:18:23;55399.00;;;-146.72;71.42
40994;BME280;26722;43.212;27.932;2023-01-28T06:20:49;55386.34;;;-146.72;70.51
40994;BME280;26722;43.212;27.932;2023-01-28T06:23:14;55407.47;;;-146.72;70.05
40994;BME280;26722;43.212;27.932;2023-01-28T06:25:40;55390.56;;;-146.72;70.26
40994;BME280;26722;43.212;27.932;2023-01-28T06:28:05;55399.00;;;-146.72;70.63
40994;BME280;26722;43.212;27.932;2023-01-28T06:30:31;55420.13;;;-146.72;70.85
40994;BME280;26722;43.212;27.932;2023-01-28T06:32:56;55384.22;;;-146.72;70.99
40994;BME280;26722;43.212;27.932;2023-01-28T06:35:22;55382.13;;;-146.72;70.56
40994;BME280;26722;43.212;27.932;2023-01-28T06:37:48;55394.78;;;-146.72;70.90
40994;BME280;26722;43.212;27.932;2023-01-28T06:40:13;55394.78;;;-146.72;71.04
40994;BME280;26722;43.212;27.932;2023-01-28T06:42:39;55392.69;;;-146.72;70.98
40994;BME280;26722;43.212;27.932;2023-01-28T06:45:04;55418.00;;;-146.72;70.98
40994;BME280;26722;43.212;27.932;2023-01-28T06:47:30;55390.56;;;-146.72;70.85
40994;BME280;26722;43.212;27.932;2023-01-28T06:49:55;55399.00;;;-146.72;71.02
40994;BME280;26722;43.212;27.932;2023-01-28T06:52:21;55415.91;;;-146.72;71.23
40994;BME280;26722;43.212;27.932;2023-01-28T06:54:46;55432.78;;;-146.72;71.14
40994;BME280;26722;43.212;27.932;2023-01-28T06:57:11;55380.00;;;-146.72;70.96
40994;BME280;26722;43.212;27.932;2023-01-28T06:59:37;55394.78;;;-146.72;71.21
40994;BME280;26722;43.212;27.932;2023-01-28T07:02:02;55420.13;;;-146.72;71.04
40994;BME280;26722;43.212;27.932;2023-01-28T07:04:28;55375.78;;;-146.72;71.33
40994;BME280;26722;43.212;27.932;2023-01-28T07:06:53;55375.78;;;-146.72;71.03
40994;BME280;26722;43.212;27.932;2023-01-28T07:09:19;55415.91;;;-146.72;71.17
40994;BME280;26722;43.212;27.932;2023-01-28T07:11:44;55403.25;;;-146.72;71.16
40994;BME280;26722;43.212;27.932;2023-01-28T07:14:10;55428.56;;;-146.72;71.16
40994;BME280;26722;43.212;27.932;2023-01-28T07:16:35;55392.69;;;-146.72;71.36
40994;BME280;26722;43.212;27.932;2023-01-28T07:19:01;55390.56;;;-146.72;71.03
40994;BME280;26722;43.212;27.932;2023-01-28T07:21:26;55407.47;;;-146.72;71.07
40994;BME280;26722;43.212;27.932;2023-01-28T07:23:52;55382.13;;;-146.72;71.00
40994;BME280;26722;43.212;27.932;2023-01-28T07:26:17;55392.69;;;-146.72;70.46
40994;BME280;26722;43.212;27.932;2023-01-28T07:28:47;55388.47;;;-146.72;69.82
40994;BME280;26722;43.212;27.932;2023-01-28T07:31:12;55377.91;;;-146.72;69.38
40994;BME280;26722;43.212;27.932;2023-01-28T07:33:38;55380.00;;;-146.72;69.33
40994;BME280;26722;43.212;27.932;2023-01-28T07:36:03;55356.78;;;-146.72;69.31
40994;BME280;26722;43.212;27.932;2023-01-28T07:38:29;55365.22;;;-146.72;68.67
40994;BME280;26722;43.212;27.932;2023-01-28T07:40:54;55377.91;;;-146.72;67.98
40994;BME280;26722;43.212;27.932;2023-01-28T07:43:20;55363.13;;;-146.72;67.38
40994;BME280;26722;43.212;27.932;2023-01-28T07:45:45;55361.00;;;-146.72;67.02
40994;BME280;26722;43.212;27.932;2023-01-28T07:48:12;55344.13;;;-146.72;66.52
40994;BME280;26722;43.212;27.932;2023-01-28T07:50:38;55363.13;;;-146.72;66.00
40994;BME280;26722;43.212;27.932;2023-01-28T07:53:10;55356.78;;;-146.72;66.07
40994;BME280;26722;43.212;27.932;2023-01-28T07:55:37;55371.56;;;-146.72;65.07
40994;BME280;26722;43.212;27.932;2023-01-28T07:58:04;55344.13;;;-146.72;65.20
40994;BME280;26722;43.212;27.932;2023-01-28T08:00:32;55352.56;;;-146.72;64.51
40994;BME280;26722;43.212;27.932;2023-01-28T08:03:00;55356.78;;;-146.72;64.88
40994;BME280;26722;43.212;27.932;2023-01-28T08:05:30;55354.66;;;-146.72;64.25
40994;BME280;26722;43.212;27.932;2023-01-28T08:08:00;55358.91;;;-146.72;64.38
40994;BME280;26722;43.212;27.932;2023-01-28T08:10:26;55337.78;;;-146.72;64.45
40994;BME280;26722;43.212;27.932;2023-01-28T08:12:56;55384.22;;;-146.72;64.18
40994;BME280;26722;43.212;27.932;2023-01-28T08:15:26;55363.13;;;-146.72;64.24
40994;BME280;26722;43.212;27.932;2023-01-28T08:17:58;55339.91;;;-146.72;64.38
40994;BME280;26722;43.212;27.932;2023-01-28T08:20:25;55361.00;;;-146.72;64.91
40994;BME280;26722;43.212;27.932;2023-01-28T08:22:51;55350.44;;;-146.72;64.75
40994;BME280;26722;43.212;27.932;2023-01-28T08:25:16;55365.22;;;-146.72;65.08
40994;BME280;26722;43.212;27.932;2023-01-28T08:27:42;55361.00;;;-146.72;63.81
40994;BME280;26722;43.212;27.932;2023-01-28T08:30:08;55346.22;;;-146.72;64.29
40994;BME280;26722;43.212;27.932;2023-01-28T08:32:34;55331.44;;;-146.72;63.54
40994;BME280;26722;43.212;27.932;2023-01-28T08:34:59;55301.88;;;-146.72;62.37
40994;BME280;26722;43.212;27.932;2023-01-28T08:37:25;55320.88;;;-146.72;62.28
40994;BME280;26722;43.212;27.932;2023-01-28T08:39:50;55331.44;;;-146.72;62.08
40994;BME280;26722;43.212;27.932;2023-01-28T08:42:16;55356.78;;;-146.72;62.38
40994;BME280;26722;43.212;27.932;2023-01-28T08:44:41;55375.78;;;-146.72;63.17
40994;BME280;26722;43.212;27.932;2023-01-28T08:47:07;55344.13;;;-146.72;63.60
40994;BME280;26722;43.212;27.932;2023-01-28T08:49:32;55377.91;;;-146.72;63.83
40994;BME280;26722;43.212;27.932;2023-01-28T08:51:58;55386.34;;;-146.72;64.48
40994;BME280;26722;43.212;27.932;2023-01-28T08:54:23;55388.47;;;-146.72;65.06
40994;BME280;26722;43.212;27.932;2023-01-28T08:56:49;55365.22;;;-146.72;65.24
40994;BME280;26722;43.212;27.932;2023-01-28T08:59:16;55367.34;;;-146.72;65.40
40994;BME280;26722;43.212;27.932;2023-01-28T09:01:41;55394.78;;;-146.72;65.30
40994;BME280;26722;43.212;27.932;2023-01-28T09:04:06;55388.47;;;-146.72;65.29
40994;BME280;26722;43.212;27.932;2023-01-28T09:06:32;55411.69;;;-146.72;65.21
40994;BME280;26722;43.212;27.932;2023-01-28T09:09:00;55369.44;;;-146.72;65.63
40994;BME280;26722;43.212;27.932;2023-01-28T09:11:27;55394.78;;;-146.72;65.71
40994;BME280;26722;43.212;27.932;2023-01-28T09:13:53;55394.78;;;-146.72;65.75
40994;BME280;26722;43.212;27.932;2023-01-28T09:16:19;55392.69;;;-146.72;65.89
40994;BME280;26722;43.212;27.932;2023-01-28T09:18:44;55386.34;;;-146.72;65.34
40994;BME280;26722;43.212;27.932;2023-01-28T09:21:10;55377.91;;;-146.72;65.34
40994;BME280;26722;43.212;27.932;2023-01-28T09:23:38;55373.69;;;-146.72;65.24
40994;BME280;26722;43.212;27.932;2023-01-28T09:26:04;55380.00;;;-146.72;64.91
40994;BME280;26722;43.212;27.932;2023-01-28T09:28:31;55369.44;;;-146.72;64.69
40994;BME280;26722;43.212;27.932;2023-01-28T09:31:04;55390.56;;;-146.72;64.35
40994;BME280;26722;43.212;27.932;2023-01-28T09:33:31;55394.78;;;-146.72;63.62
40994;BME280;26722;43.212;27.932;2023-01-28T09:36:01;55388.47;;;-146.72;64.40
40994;BME280;26722;43.212;27.932;2023-01-28T09:38:28;55394.78;;;-146.72;64.77
40994;BME280;26722;43.212;27.932;2023-01-28T09:40:54;55399.00;;;-146.72;64.83
40994;BME280;26722;43.212;27.932;2023-01-28T09:45:57;55384.22;;;-146.72;64.58
40994;BME280;26722;43.212;27.932;2023-01-28T09:48:27;55377.91;;;-146.72;64.66
40994;BME280;26722;43.212;27.932;2023-01-28T09:50:57;55382.13;;;-146.72;64.89
40994;BME280;26722;43.212;27.932;2023-01-28T09:53:28;55390.56;;;-146.72;65.56
40994;BME280;26722;43.212;27.932;2023-01-28T09:55:59;55365.22;;;-146.72;65.60
40994;BME280;26722;43.212;27.932;2023-01-28T09:58:25;55392.69;;;-146.72;65.02
40994;BME280;26722;43.212;27.932;2023-01-28T10:00:59;55369.44;;;-146.72;64.62
40994;BME280;26722;43.212;27.932;2023-01-28T10:08:41;55365.22;;;-146.72;64.09
40994;BME280;26722;43.212;27.932;2023-01-28T10:11:38;55384.22;;;-146.72;64.29
40994;BME280;26722;43.212;27.932;2023-01-28T10:14:16;55380.00;;;-146.72;63.74
40994;BME280;26722;43.212;27.932;2023-01-28T10:17:01;55377.91;;;-146.72;63.11
40994;BME280;26722;43.212;27.932;2023-01-28T10:19:33;55365.22;;;-146.72;62.26
40994;BME280;26722;43.212;27.932;2023-01-28T10:22:06;55373.69;;;-146.72;63.14
40994;BME280;26722;43.212;27.932;2023-01-28T10:24:35;55373.69;;;-146.72;63.39
40994;BME280;26722;43.212;27.932;2023-01-28T10:27:16;55384.22;;;-146.72;64.07
40994;BME280;26722;43.212;27.932;2023-01-28T10:29:42;55373.69;;;-146.72;63.77
40994;BME280;26722;43.212;27.932;2023-01-28T10:32:20;55377.91;;;-146.72;63.79
40994;BME280;26722;43.212;27.932;2023-01-28T10:34:47;55373.69;;;-146.72;64.14
40994;BME280;26722;43.212;27.932;2023-01-28T10:37:14;55356.78;;;-146.72;63.60
40994;BME280;26722;43.212;27.932;2023-01-28T10:39:40;55403.25;;;-146.72;64.29
40994;BME280;26722;43.212;27.932;2023-01-28T10:42:17;55399.00;;;-146.72;64.93
40994;BME280;26722;43.212;27.932;2023-01-28T10:44:46;55386.34;;;-146.72;65.39
40994;BME280;26722;43.212;27.932;2023-01-28T10:47:15;55382.13;;;-146.72;65.02
40994;BME280;26722;43.212;27.932;2023-01-28T10:49:48;55390.56;;;-146.72;64.68
40994;BME280;26722;43.212;27.932;2023-01-28T10:52:16;55356.78;;;-146.72;64.21
40994;BME280;26722;43.212;27.932;2023-01-28T10:54:42;55377.91;;;-146.72;64.57
40994;BME280;26722;43.212;27.932;2023-01-28T10:57:16;55394.78;;;-146.72;64.60
40994;BME280;26722;43.212;27.932;2023-01-28T10:59:43;55390.56;;;-146.72;64.86
40994;BME280;26722;43.212;27.932;2023-01-28T11:02:28;55394.78;;;-146.72;65.58
40994;BME280;26722;43.212;27.932;2023-01-28T11:07:30;55407.47;;;-146.72;64.84
40994;BME280;26722;43.212;27.932;2023-01-28T11:09:55;55377.91;;;-146.72;65.19
40994;BME280;26722;43.212;27.932;2023-01-28T11:12:23;55382.13;;;-146.72;64.88
40994;BME280;26722;43.212;27.932;2023-01-28T11:14:54;55373.69;;;-146.72;65.30
40994;BME280;26722;43.212;27.932;2023-01-28T11:17:22;55373.69;;;-146.72;64.89
40994;BME280;26722;43.212;27.932;2023-01-28T11:19:50;55365.22;;;-146.72;63.88
40994;BME280;26722;43.212;27.932;2023-01-28T11:24:46;55377.91;;;-146.72;65.35
40994;BME280;26722;43.212;27.932;2023-01-28T11:27:15;55401.13;;;-146.72;65.43
40994;BME280;26722;43.212;27.932;2023-01-28T11:29:43;55394.78;;;-146.72;65.83
40994;BME280;26722;43.212;27.932;2023-01-28T11:32:18;55377.91;;;-146.72;65.17
40994;BME280;26722;43.212;27.932;2023-01-28T11:34:50;55377.91;;;-146.72;65.65
40994;BME280;26722;43.212;27.932;2023-01-28T11:37:19;55386.34;;;-146.72;65.37
40994;BME280;26722;43.212;27.932;2023-01-28T11:39:45;55407.47;;;-146.72;65.43
40994;BME280;26722;43.212;27.932;2023-01-28T11:42:17;55365.22;;;-146.72;65.30
40994;BME280;26722;43.212;27.932;2023-01-28T11:44:45;55394.78;;;-146.72;65.97
40994;BME280;26722;43.212;27.932;2023-01-28T11:47:32;55399.00;;;-146.72;66.25
40994;BME280;26722;43.212;27.932;2023-01-28T11:53:32;55390.56;;;-146.72;66.26
40994;BME280;26722;43.212;27.932;2023-01-28T11:55:58;55415.91;;;-146.72;66.48
40994;BME280;26722;43.212;27.932;2023-01-28T12:01:09;55407.47;;;-146.72;66.30
40994;BME280;26722;43.212;27.932;2023-01-28T12:12:25;55396.91;;;-146.72;66.26
40994;BME280;26722;43.212;27.932;2023-01-28T12:17:53;55420.13;;;-146.72;66.63
40994;BME280;26722;43.212;27.932;2023-01-28T12:26:16;55394.78;;;-146.72;65.86
40994;BME280;26722;43.212;27.932;2023-01-28T12:29:28;55394.78;;;-146.72;65.71
40994;BME280;26722;43.212;27.932;2023-01-28T12:32:11;55407.47;;;-146.72;66.22
40994;BME280;26722;43.212;27.932;2023-01-28T12:34:59;55390.56;;;-146.72;65.95
40994;BME280;26722;43.212;27.932;2023-01-28T12:40:19;55394.78;;;-146.72;65.81
40994;BME280;26722;43.212;27.932;2023-01-28T12:43:02;55386.34;;;-146.72;66.28
40994;BME280;26722;43.212;27.932;2023-01-28T12:45:38;55394.78;;;-146.72;66.27
40994;BME280;26722;43.212;27.932;2023-01-28T12:48:15;55365.22;;;-146.72;66.48
40994;BME280;26722;43.212;27.932;2023-01-28T12:51:13;55396.91;;;-146.72;66.16
40994;BME280;26722;43.212;27.932;2023-01-28T12:53:45;55384.22;;;-146.72;65.77
40994;BME280;26722;43.212;27.932;2023-01-28T12:59:31;55382.13;;;-146.72;66.02
40994;BME280;26722;43.212;27.932;2023-01-28T13:01:43;55420.13;;;-146.72;65.73
40994;BME280;26722;43.212;27.932;2023-01-28T13:04:14;55390.56;;;-146.72;65.96
40994;BME280;26722;43.212;27.932;2023-01-28T13:06:56;55386.34;;;-146.72;66.46
40994;BME280;26722;43.212;27.932;2023-01-28T13:09:25;55394.78;;;-146.72;66.12
40994;BME280;26722;43.212;27.932;2023-01-28T13:11:53;55390.56;;;-146.72;65.85
40994;BME280;26722;43.212;27.932;2023-01-28T13:14:27;55390.56;;;-146.72;66.23
40994;BME280;26722;43.212;27.932;2023-01-28T13:16:53;55396.91;;;-146.72;66.79
40994;BME280;26722;43.212;27.932;2023-01-28T13:21:45;55396.91;;;-146.72;67.06
40994;BME280;26722;43.212;27.932;2023-01-28T13:31:42;55405.34;;;-146.72;67.05
40994;BME280;26722;43.212;27.932;2023-01-28T13:34:25;55394.78;;;-146.72;66.69
40994;BME280;26722;43.212;27.932;2023-01-28T13:36:51;55399.00;;;-146.72;66.36
40994;BME280;26722;43.212;27.932;2023-01-28T13:39:21;55420.13;;;-146.72;66.40
40994;BME280;26722;43.212;27.932;2023-01-28T13:41:53;55415.91;;;-146.72;65.63
40994;BME280;26722;43.212;27.932;2023-01-28T13:44:31;55405.34;;;-146.72;65.32
40994;BME280;26722;43.212;27.932;2023-01-28T13:47:11;55394.78;;;-146.72;65.26
40994;BME280;26722;43.212;27.932;2023-01-28T13:49:43;55420.13;;;-146.72;65.56
40994;BME280;26722;43.212;27.932;2023-01-28T13:54:43;55361.00;;;-146.72;65.88
40994;BME280;26722;43.212;27.932;2023-01-28T13:57:24;55399.00;;;-146.72;65.53
40994;BME280;26722;43.212;27.932;2023-01-28T14:06:17;55394.78;;;-146.72;65.87
40994;BME280;26722;43.212;27.932;2023-01-28T14:11:50;55390.56;;;-146.72;66.45